Latest Weather Observations for Longreach

IDQ60801

Issued at 10:35 pm EST Friday 24 October 2014 (issued every 30 minutes, with the page automatically refreshed every 10 minutes)

About weather observations | Map of weather stations | Latest weather observations for QLD | Other Formats
Station Details ID: 036031 Name: LONGREACH AERO Lat: -23.44 Lon: 144.28 Height: 192.2 m
Data from the previous 72 hours. | See also: Recent months at Longreach
Date/Time
EST
Temp
°C
App
Temp
°C
Dew
Point
Rel
Hum
%
Delta-T
°C
Wind Press
QNH
hPa
Press
MSL
hPa
Rain
since 9 am
mm
Dir
 
Spd
km/h
Gust
km/h
Spd
kts
Gust
kts
24/10:30pm 25.4 20.3 0.5 19 11.7 NE 17 17 9 9 1017.8 - 0.0
24/10:00pm 26.3 22.0 1.3 19 12.0 NE 13 13 7 7 1017.6 - 0.0
24/09:30pm 26.7 22.1 1.7 19 12.1 ENE 15 17 8 9 1017.5 - 0.0
24/09:00pm 27.1 22.5 1.5 19 12.4 ENE 15 17 8 9 1017.2 1016.2 0.0
24/08:30pm 26.6 22.1 2.3 20 11.9 ENE 15 15 8 8 1017.1 - 0.0
24/08:00pm 27.2 22.3 2.1 19 12.3 E 17 17 9 9 1016.8 - 0.0
24/07:30pm 29.6 26.7 4.9 21 12.9 E 9 11 5 6 1016.5 - 0.0
24/07:00pm 29.8 26.0 3.9 19 13.3 E 13 15 7 8 1016.1 - 0.0
24/06:30pm 32.7 27.8 1.8 14 15.6 E 17 22 9 12 1015.8 - 0.0
24/06:00pm 34.2 28.4 0.2 11 16.9 ESE 20 28 11 15 1015.5 1014.4 0.0
24/05:30pm 34.8 28.6 -0.5 10 17.4 E 22 32 12 17 1015.1 - 0.0
24/05:00pm 35.2 29.6 1.1 11 17.3 ESE 20 33 11 18 1015.0 - 0.0
24/04:30pm 35.2 30.0 2.4 12 17.0 ESE 19 26 10 14 1014.9 - 0.0
24/04:00pm 35.2 31.2 0.7 11 17.4 ENE 11 17 6 9 1015.1 - 0.0
24/03:30pm 35.3 29.7 0.9 11 17.4 E 20 37 11 20 1015.2 - 0.0
24/03:00pm 35.0 29.1 1.8 12 17.0 E 22 33 12 18 1015.6 1014.5 0.0
24/02:30pm 35.5 31.3 1.9 12 17.3 NNE 13 20 7 11 1016.0 - 0.0
24/02:00pm 34.7 30.1 3.5 14 16.4 NNE 17 24 9 13 1016.7 - 0.0
24/01:30pm 33.6 28.8 2.4 14 16.0 E 17 26 9 14 1017.2 - 0.0
24/01:00pm 34.1 28.2 2.0 13 16.4 NE 22 30 12 16 1017.7 - 0.0
24/12:30pm 34.3 30.2 2.1 13 16.5 NNE 13 24 7 13 1018.3 - 0.0
24/12:00pm 33.0 28.1 1.7 13 15.8 NE 17 26 9 14 1018.6 1017.6 0.0
24/11:30am 32.2 27.7 4.0 17 14.7 NE 17 30 9 16 1019.2 - 0.0
24/11:00am 32.5 28.4 2.5 15 15.3 NNE 13 24 7 13 1019.8 - 0.0
24/10:30am 30.3 25.0 2.8 17 13.9 N 20 30 11 16 1020.1 - 0.0
24/10:00am 30.6 25.2 2.7 17 14.1 N 20 35 11 19 1020.2 - 0.0
24/09:30am 29.0 23.0 3.3 19 13.0 NNE 24 32 13 17 1020.4 - 0.0
24/09:00am 28.2 22.3 3.7 21 12.4 N 24 32 13 17 1020.3 1019.3 0.0
24/08:30am 27.3 21.1 4.3 23 11.7 N 26 32 14 17 1020.2 - 0.0
24/08:00am 25.2 19.9 5.2 27 10.2 NNE 22 30 12 16 1020.1 - 0.0
24/07:30am 24.0 19.3 5.3 30 9.5 NNE 19 24 10 13 1020.1 - 0.0
24/07:00am 22.0 17.8 4.0 30 8.8 NNE 15 20 8 11 1019.7 - 0.0
24/06:30am 19.7 16.3 1.9 30 8.2 NE 9 13 5 7 1019.4 - 0.0
24/06:00am 17.4 14.0 2.0 35 7.0 NNE 9 9 5 5 1019.0 1018.0 0.0
24/05:30am 17.6 14.2 2.0 35 7.1 NNE 9 9 5 5 1018.5 - 0.0
24/05:00am 18.8 15.3 1.4 31 7.9 N 9 13 5 7 1018.0 - 0.0
24/04:30am 17.9 14.1 1.5 33 7.4 NNE 11 11 6 6 1017.5 - 0.0
24/04:00am 18.7 14.4 1.2 31 7.9 NE 13 15 7 8 1017.2 - 0.0
24/03:30am 18.2 14.3 1.4 32 7.6 NNE 11 13 6 7 1017.1 - 0.0
24/03:00am 18.5 14.2 1.2 31 7.8 NNE 13 13 7 7 1017.0 1016.0 0.0
24/02:30am 18.7 15.7 1.9 32 7.7 NNE 7 9 4 5 1017.2 - 0.0
24/02:00am 19.2 16.2 1.7 31 8.0 NNE 7 9 4 5 1017.4 - 0.0
24/01:30am 20.2 16.1 2.2 30 8.4 NE 13 13 7 7 1017.5 - 0.0
24/01:00am 20.2 16.4 1.8 29 8.5 NE 11 13 6 7 1017.7 - 0.0
24/12:30am 20.8 16.7 2.2 29 8.7 NE 13 13 7 7 1017.7 - 0.0
24/12:00am 21.6 17.8 2.0 27 9.2 NE 11 13 6 7 1017.7 1016.7 0.0
 
Date/Time
EST
Temp
°C
App
Temp
°C
Dew
Point
Rel
Hum
%
Delta-T
°C
Wind Press
QNH
hPa
Press
MSL
hPa
Rain
since 9 am
mm
Dir
 
Spd
km/h
Gust
km/h
Spd
kts
Gust
kts
23/11:30pm 22.1 18.3 1.9 26 9.5 ENE 11 13 6 7 1018.0 - 0.0
23/11:00pm 22.5 18.6 3.6 29 9.2 ENE 13 15 7 8 1017.9 - 0.0
23/10:30pm 24.3 21.4 4.9 28 9.8 ENE 9 11 5 6 1017.8 - 0.0
23/10:00pm 24.8 23.1 5.8 29 9.8 NE 4 6 2 3 1017.5 - 0.0
23/09:30pm 25.8 23.5 7.4 31 9.8 NE 9 9 5 5 1017.3 - 0.0
23/09:00pm 26.0 23.0 6.0 27 10.4 ENE 11 13 6 7 1017.1 1016.1 0.0
23/08:30pm 26.3 22.7 5.1 25 10.9 E 13 17 7 9 1016.6 - 0.0
23/08:00pm 27.8 23.8 5.0 23 11.8 E 15 17 8 9 1016.4 - 0.0
23/07:30pm 27.8 24.2 5.0 23 11.8 E 13 15 7 8 1016.0 - 0.0
23/07:00pm 29.4 26.2 6.7 24 12.2 E 13 15 7 8 1015.8 - 0.0
23/06:30pm 31.4 26.8 5.5 19 13.8 E 19 26 10 14 1015.5 - 0.0
23/06:00pm 32.8 28.5 5.4 18 14.7 E 17 22 9 12 1015.2 1014.2 0.0
23/05:30pm 32.9 28.1 4.9 17 14.9 E 19 22 10 12 1015.0 - 0.0
23/05:00pm 33.5 28.5 4.8 16 15.3 E 20 30 11 16 1014.7 - 0.0
23/04:30pm 33.9 31.2 5.7 17 15.3 SE 9 20 5 11 1014.5 - 0.0
23/04:00pm 34.5 29.6 5.2 16 15.8 E 20 28 11 15 1014.4 - 0.0
23/03:30pm 33.5 30.0 7.4 20 14.5 NE 15 30 8 16 1014.7 - 0.0
23/03:00pm 33.3 29.6 6.4 18 14.7 E 15 26 8 14 1014.9 1013.9 0.0
23/02:30pm 32.7 30.5 7.7 21 13.9 S 9 13 5 7 1015.5 - 0.0
23/02:00pm 33.6 28.7 7.0 19 14.7 ENE 22 30 12 16 1015.8 - 0.0
23/01:30pm 32.7 31.0 9.7 24 13.2 NE 9 15 5 8 1016.3 - 0.0
23/01:00pm 33.7 30.2 8.9 21 14.1 NNE 17 26 9 14 1016.9 - 0.0
23/12:30pm 33.4 30.5 9.5 23 13.7 ENE 15 20 8 11 1017.6 - 0.0
23/12:00pm 31.5 29.1 10.0 26 12.3 N 13 20 7 11 1018.3 1017.3 0.0
23/11:30am 31.6 28.0 9.9 26 12.4 ENE 19 26 10 14 1018.8 - 0.0
23/11:00am 31.4 27.7 10.1 26 12.2 NNE 20 32 11 17 1018.9 - 0.0
23/10:30am 29.8 26.4 10.6 30 11.0 NNE 19 30 10 16 1019.5 - 0.0
23/10:00am 29.1 25.4 10.3 31 10.7 NNE 20 30 11 16 1019.9 - 0.0
23/09:30am 28.6 24.6 10.3 32 10.4 N 22 28 12 15 1020.2 - 0.0
23/09:00am 27.2 23.2 10.6 35 9.4 NNE 22 32 12 17 1020.4 1019.4 0.0
23/08:30am 26.3 20.7 10.0 36 9.1 NNE 30 37 16 20 1020.3 - 0.0
23/08:00am 25.2 20.2 9.4 36 8.7 NNE 26 32 14 17 1020.3 - 0.0
23/07:30am 24.0 19.6 7.5 34 8.7 NNE 20 30 11 16 1020.2 - 0.0
23/07:00am 22.5 17.9 5.4 33 8.6 NE 19 28 10 15 1019.8 - 0.0
23/06:30am 19.6 16.4 3.1 33 7.8 ENE 9 11 5 6 1019.3 - 0.0
23/06:00am 17.8 15.0 2.9 37 6.9 E 7 9 4 5 1019.0 1018.0 0.0
23/05:30am 17.1 13.0 2.1 36 6.8 E 13 17 7 9 1018.5 - 0.0
23/05:00am 18.1 14.4 2.5 35 7.2 E 11 13 6 7 1018.2 - 0.0
23/04:30am 18.2 14.4 1.7 33 7.5 E 11 13 6 7 1017.9 - 0.0
23/04:00am 17.0 13.3 2.6 38 6.6 ENE 11 11 6 6 1017.4 - 0.0
23/03:30am 17.5 14.1 1.8 35 7.1 NE 9 11 5 6 1017.3 - 0.0
23/03:00am 17.9 15.3 4.3 40 6.5 NNE 7 9 4 5 1017.3 1016.3 0.0
23/02:30am 18.3 15.3 2.2 34 7.4 N 7 9 4 5 1017.5 - 0.0
23/02:00am 19.0 15.7 2.4 33 7.7 ENE 9 11 5 6 1017.7 - 0.0
23/01:30am 19.4 16.9 4.6 37 7.2 ENE 7 9 4 5 1018.1 - 0.0
23/01:00am 20.7 17.6 3.4 32 8.3 ENE 9 9 5 5 1018.4 - 0.0
23/12:30am 19.6 16.9 5.4 39 7.0 NE 9 9 5 5 1018.5 - 0.0
23/12:00am 20.4 18.1 5.0 36 7.6 ENE 6 7 3 4 1018.6 1017.6 0.0
 
Date/Time
EST
Temp
°C
App
Temp
°C
Dew
Point
Rel
Hum
%
Delta-T
°C
Wind Press
QNH
hPa
Press
MSL
hPa
Rain
since 9 am
mm
Dir
 
Spd
km/h
Gust
km/h
Spd
kts
Gust
kts
22/11:30pm 21.5 17.5 2.8 29 8.9 NE 13 13 7 7 1018.6 - 0.0
22/11:00pm 21.8 18.2 2.7 28 9.1 NNE 11 13 6 7 1018.6 - 0.0
22/10:30pm 22.4 20.9 2.8 27 9.4 CALM 0 4 0 2 1018.6 - 0.0
22/10:00pm 24.9 22.1 3.1 24 10.7 E 7 9 4 5 1018.5 - 0.0
22/09:30pm 25.5 21.8 2.5 22 11.2 E 11 13 6 7 1018.5 - 0.0
22/09:00pm 26.2 22.3 3.6 23 11.3 E 13 13 7 7 1018.4 1017.4 0.0
22/08:30pm 26.5 22.4 2.0 20 11.9 E 13 15 7 8 1018.3 - 0.0
22/08:00pm 26.0 22.1 3.2 23 11.3 E 13 15 7 8 1018.0 - 0.0
22/07:30pm 26.5 22.6 3.5 22 11.5 E 13 15 7 8 1017.8 - 0.0
22/07:00pm 28.6 24.1 2.1 18 13.1 E 15 19 8 10 1017.4 - 0.0
22/06:30pm 30.5 25.7 0.5 14 14.6 E 15 19 8 10 1017.1 - 0.0
22/06:00pm 31.8 25.9 -0.5 12 15.6 ESE 20 30 11 16 1016.9 1015.9 0.0
22/05:30pm 32.6 25.9 -1.1 11 16.2 ESE 24 32 13 17 1016.7 - 0.0
22/05:00pm 33.2 26.7 0.6 12 16.2 ENE 24 37 13 20 1016.6 - 0.0
22/04:30pm 33.3 28.3 1.2 13 16.1 E 17 30 9 16 1016.6 - 0.0
22/04:00pm 32.9 27.6 3.1 15 15.4 ENE 20 30 11 16 1016.8 - 0.0
22/03:30pm 32.5 28.3 4.0 16 14.9 SE 15 20 8 11 1016.9 - 0.0
22/03:00pm 33.6 29.0 3.5 15 15.7 E 17 32 9 17 1017.3 1016.3 0.0
22/02:30pm 32.7 28.4 5.1 17 14.7 E 17 30 9 16 1017.8 - 0.0
22/02:00pm 32.3 26.7 5.3 18 14.4 E 24 33 13 18 1018.4 - 0.0
22/01:30pm 32.5 27.6 5.0 18 14.6 ENE 20 39 11 21 1019.0 - 0.0
22/01:00pm 31.8 25.7 4.9 18 14.2 ENE 26 37 14 20 1019.6 - 0.0
22/12:30pm 32.1 27.2 7.1 21 13.7 NE 22 35 12 19 1020.0 - 0.0
22/12:00pm 30.9 24.7 6.1 21 13.3 ENE 28 37 15 20 1020.6 1019.6 0.0
22/11:30am 29.8 25.5 7.7 25 12.1 NE 20 33 11 18 1021.3 - 0.0
22/11:00am 29.4 23.5 7.5 25 11.9 NNE 28 37 15 20 1021.9 - 0.0
22/10:30am 27.8 21.9 7.6 28 10.9 NE 28 41 15 22 1022.3 - 0.0
22/10:00am 27.8 21.2 8.4 29 10.7 NE 33 48 18 26 1022.5 - 0.0
22/09:30am 26.5 19.1 8.5 32 9.8 NE 37 48 20 26 1022.5 - 0.0
22/09:00am 25.5 17.7 8.2 33 9.3 NE 39 50 21 27 1022.6 1021.6 0.0
22/08:30am 24.5 16.3 8.0 35 8.8 NE 41 54 22 29 1022.8 - 0.0
22/08:00am 24.2 15.5 7.6 34 8.8 NE 43 54 23 29 1022.6 - 0.0
22/07:30am 23.0 15.0 7.3 36 8.2 NE 39 52 21 28 1022.3 - 0.0
22/07:00am 22.3 15.6 7.3 38 7.8 NE 32 43 17 23 1022.0 - 0.0
22/06:30am 21.0 16.6 7.5 41 7.0 NE 20 30 11 16 1021.6 - 0.0
22/06:00am 19.9 15.7 7.5 44 6.4 NE 19 22 10 12 1021.1 1020.1 0.0
22/05:30am 19.6 15.9 7.8 46 6.1 NE 17 19 9 10 1020.9 - 0.0
22/05:00am 20.0 16.3 7.9 45 6.3 NE 17 22 9 12 1020.4 - 0.0
22/04:30am 20.4 16.3 7.9 44 6.5 NE 19 26 10 14 1019.9 - 0.0
22/04:00am 21.1 17.3 7.4 41 7.1 NE 17 22 9 12 1019.5 - 0.0
22/03:30am 21.1 16.5 6.6 39 7.4 NE 20 30 11 16 1019.4 - 0.0
22/03:00am 21.7 15.4 5.9 35 8.0 NNE 28 32 15 17 1019.1 1018.1 0.0
22/02:30am 22.4 16.8 5.3 33 8.6 NE 24 32 13 17 1019.3 - 0.0
22/02:00am 23.2 16.3 4.8 30 9.2 NE 30 37 16 20 1019.6 - 0.0
22/01:30am 22.8 18.3 4.4 30 9.1 ENE 17 22 9 12 1019.8 - 0.0
22/01:00am 22.8 17.7 4.1 29 9.2 ENE 20 26 11 14 1020.0 - 0.0
22/12:30am 23.7 18.2 3.8 27 9.8 ENE 22 28 12 15 1020.2 - 0.0
22/12:00am 24.1 19.0 3.9 27 10.0 ENE 20 28 11 15 1020.3 1019.3 0.0
 
Date/Time
EST
Temp
°C
App
Temp
°C
Dew
Point
Rel
Hum
%
Delta-T
°C
Wind Press
QNH
hPa
Press
MSL
hPa
Rain
since 9 am
mm
Dir
 
Spd
km/h
Gust
km/h
Spd
kts
Gust
kts
21/11:30pm 24.3 18.8 4.2 27 10.0 E 22 30 12 16 1020.6 - 0.0
21/11:00pm 24.5 19.3 3.6 25 10.3 ENE 20 28 11 15 1020.6 - 0.0

Other Formats:

Comma delimited format used in spreadsheet applications
http://www.bom.gov.au/fwo/IDQ60801/IDQ60801.94346.axf

JavaScript Object Notation format (JSON) in row-major order
http://www.bom.gov.au/fwo/IDQ60801/IDQ60801.94346.json